Soules Chapel, Texas
Current Conditions -  °F | °C
As of 4:55 AM on Wednesday 22 Oct 2014 (Local Time) from KOSA Reporting Station
Overcast Overcast  
Wind Chill: 58°   Ceiling: 500
Heat Index: 58°   Visibility: 0.5mi
Dew Point: 58°   Wind: 3mph
Humidity: 99%   Direction: 60°ENE
Pressure: 30.11"   Gusts: NA
Location:  32.7353°N, 94.9492°W
Report Text: KOSA 220955Z AUTO 06003KT 1/2SM VV005 15/14 A3011 RMK AO1 T01450144
Loading
Personal Weather Stations






























Interactive Weather Map
Tropical Storm Tracking
New forecast layout! Learn more

10-Day Weather Forecast

Advertisements
Track Severe Weather on mobile